sensor_id;sensor_type;location;lat;lon;timestamp;temperature;humidity
16408;DHT22;8313;49.894;8.084;2023-03-31T00:02:10;12.30;99.90
16408;DHT22;8313;49.894;8.084;2023-03-31T00:04:42;12.30;99.90
16408;DHT22;8313;49.894;8.084;2023-03-31T00:07:18;12.20;99.90
16408;DHT22;8313;49.894;8.084;2023-03-31T00:09:49;12.10;99.90
16408;DHT22;8313;49.894;8.084;2023-03-31T00:12:19;12.00;99.90
16408;DHT22;8313;49.894;8.084;2023-03-31T00:14:45;12.00;99.90
16408;DHT22;8313;49.894;8.084;2023-03-31T00:17:11;12.10;99.90
16408;DHT22;8313;49.894;8.084;2023-03-31T00:19:38;12.20;99.90
16408;DHT22;8313;49.894;8.084;2023-03-31T00:22:04;12.20;99.90
16408;DHT22;8313;49.894;8.084;2023-03-31T00:24:31;12.10;99.90
16408;DHT22;8313;49.894;8.084;2023-03-31T00:26:58;11.90;99.90
16408;DHT22;8313;49.894;8.084;2023-03-31T00:29:25;11.80;99.90
16408;DHT22;8313;49.894;8.084;2023-03-31T00:31:51;11.80;99.90
16408;DHT22;8313;49.894;8.084;2023-03-31T00:34:17;11.80;99.90
16408;DHT22;8313;49.894;8.084;2023-03-31T00:36:42;11.90;99.90
16408;DHT22;8313;49.894;8.084;2023-03-31T00:39:17;11.90;99.90
16408;DHT22;8313;49.894;8.084;2023-03-31T00:41:44;12.00;99.90
16408;DHT22;8313;49.894;8.084;2023-03-31T00:44:19;12.00;99.90
16408;DHT22;8313;49.894;8.084;2023-03-31T00:51:48;12.20;99.90
16408;DHT22;8313;49.894;8.084;2023-03-31T00:54:14;12.20;99.90
16408;DHT22;8313;49.894;8.084;2023-03-31T00:56:43;12.30;99.90
16408;DHT22;8313;49.894;8.084;2023-03-31T00:59:11;12.20;99.90
16408;DHT22;8313;49.894;8.084;2023-03-31T01:01:39;12.20;99.90
16408;DHT22;8313;49.894;8.084;2023-03-31T01:04:07;12.30;99.90
16408;DHT22;8313;49.894;8.084;2023-03-31T01:06:37;12.30;99.90
16408;DHT22;8313;49.894;8.084;2023-03-31T01:09:13;12.30;99.90
16408;DHT22;8313;49.894;8.084;2023-03-31T01:11:43;12.30;99.90
16408;DHT22;8313;49.894;8.084;2023-03-31T01:14:10;12.30;99.90
16408;DHT22;8313;49.894;8.084;2023-03-31T01:16:36;12.30;99.90
16408;DHT22;8313;49.894;8.084;2023-03-31T01:19:07;12.30;99.90
16408;DHT22;8313;49.894;8.084;2023-03-31T01:33:14;12.10;99.90
16408;DHT22;8313;49.894;8.084;2023-03-31T01:46:26;11.90;99.90
16408;DHT22;8313;49.894;8.084;2023-03-31T01:48:58;11.80;99.90
16408;DHT22;8313;49.894;8.084;2023-03-31T01:51:48;11.80;99.90
16408;DHT22;8313;49.894;8.084;2023-03-31T01:57:15;12.00;99.90
16408;DHT22;8313;49.894;8.084;2023-03-31T02:03:03;12.00;99.90
16408;DHT22;8313;49.894;8.084;2023-03-31T02:05:34;11.90;99.90
16408;DHT22;8313;49.894;8.084;2023-03-31T02:10:31;11.90;99.90
16408;DHT22;8313;49.894;8.084;2023-03-31T02:12:59;11.80;99.90
16408;DHT22;8313;49.894;8.084;2023-03-31T02:15:33;11.80;99.90
16408;DHT22;8313;49.894;8.084;2023-03-31T02:18:02;11.70;99.90
16408;DHT22;8313;49.894;8.084;2023-03-31T02:20:31;11.50;99.90
16408;DHT22;8313;49.894;8.084;2023-03-31T02:22:58;11.30;99.90
16408;DHT22;8313;49.894;8.084;2023-03-31T02:25:30;11.30;99.90
16408;DHT22;8313;49.894;8.084;2023-03-31T02:28:04;11.20;99.90
16408;DHT22;8313;49.894;8.084;2023-03-31T02:33:24;11.20;99.90
16408;DHT22;8313;49.894;8.084;2023-03-31T02:35:51;11.10;99.90
16408;DHT22;8313;49.894;8.084;2023-03-31T02:38:17;11.10;99.90
16408;DHT22;8313;49.894;8.084;2023-03-31T02:40:42;11.10;99.90
16408;DHT22;8313;49.894;8.084;2023-03-31T02:43:08;11.20;99.90
16408;DHT22;8313;49.894;8.084;2023-03-31T02:45:41;11.20;99.90
16408;DHT22;8313;49.894;8.084;2023-03-31T02:48:42;11.10;99.90
16408;DHT22;8313;49.894;8.084;2023-03-31T03:02:12;11.30;99.90
16408;DHT22;8313;49.894;8.084;2023-03-31T03:12:48;11.10;99.90
16408;DHT22;8313;49.894;8.084;2023-03-31T03:15:29;11.20;99.90
16408;DHT22;8313;49.894;8.084;2023-03-31T03:17:57;11.20;99.90
16408;DHT22;8313;49.894;8.084;2023-03-31T03:20:23;11.30;99.90
16408;DHT22;8313;49.894;8.084;2023-03-31T03:22:48;11.40;99.90
16408;DHT22;8313;49.894;8.084;2023-03-31T03:25:15;11.40;99.90
16408;DHT22;8313;49.894;8.084;2023-03-31T03:27:43;11.50;99.90
16408;DHT22;8313;49.894;8.084;2023-03-31T03:30:10;11.50;99.90
16408;DHT22;8313;49.894;8.084;2023-03-31T03:32:37;11.50;99.90
16408;DHT22;8313;49.894;8.084;2023-03-31T03:35:04;11.50;99.90
16408;DHT22;8313;49.894;8.084;2023-03-31T03:37:30;11.40;99.90
16408;DHT22;8313;49.894;8.084;2023-03-31T03:39:56;11.50;99.90
16408;DHT22;8313;49.894;8.084;2023-03-31T03:42:22;11.50;99.90
16408;DHT22;8313;49.894;8.084;2023-03-31T03:44:47;11.50;99.90
16408;DHT22;8313;49.894;8.084;2023-03-31T03:47:14;11.60;99.90
16408;DHT22;8313;49.894;8.084;2023-03-31T03:49:39;11.60;99.90
16408;DHT22;8313;49.894;8.084;2023-03-31T03:52:05;11.60;99.90
16408;DHT22;8313;49.894;8.084;2023-03-31T03:54:31;11.60;99.90
16408;DHT22;8313;49.894;8.084;2023-03-31T03:56:57;11.60;99.90
16408;DHT22;8313;49.894;8.084;2023-03-31T03:59:22;11.60;99.90
16408;DHT22;8313;49.894;8.084;2023-03-31T04:01:48;11.60;99.90
16408;DHT22;8313;49.894;8.084;2023-03-31T04:04:14;11.60;99.90
16408;DHT22;8313;49.894;8.084;2023-03-31T04:06:40;11.60;99.90
16408;DHT22;8313;49.894;8.084;2023-03-31T04:09:06;11.60;99.90
16408;DHT22;8313;49.894;8.084;2023-03-31T04:11:32;11.60;99.90
16408;DHT22;8313;49.894;8.084;2023-03-31T04:13:57;11.60;99.90
16408;DHT22;8313;49.894;8.084;2023-03-31T04:16:23;11.50;99.90
16408;DHT22;8313;49.894;8.084;2023-03-31T04:18:51;11.50;99.90
16408;DHT22;8313;49.894;8.084;2023-03-31T04:21:21;11.60;99.90
16408;DHT22;8313;49.894;8.084;2023-03-31T04:23:49;11.60;99.90
16408;DHT22;8313;49.894;8.084;2023-03-31T04:26:17;11.60;99.90
16408;DHT22;8313;49.894;8.084;2023-03-31T04:28:43;11.60;99.90
16408;DHT22;8313;49.894;8.084;2023-03-31T04:31:15;11.60;99.90
16408;DHT22;8313;49.894;8.084;2023-03-31T04:33:50;11.60;99.90
16408;DHT22;8313;49.894;8.084;2023-03-31T04:36:16;11.60;99.90
16408;DHT22;8313;49.894;8.084;2023-03-31T04:38:47;11.50;99.90
16408;DHT22;8313;49.894;8.084;2023-03-31T04:41:17;11.50;99.90
16408;DHT22;8313;49.894;8.084;2023-03-31T04:43:43;11.50;99.90
16408;DHT22;8313;49.894;8.084;2023-03-31T04:46:09;11.60;99.90
16408;DHT22;8313;49.894;8.084;2023-03-31T04:48:34;11.50;99.90
16408;DHT22;8313;49.894;8.084;2023-03-31T04:51:00;11.50;99.90
16408;DHT22;8313;49.894;8.084;2023-03-31T04:53:26;11.40;99.90
16408;DHT22;8313;49.894;8.084;2023-03-31T04:55:52;11.50;99.90
16408;DHT22;8313;49.894;8.084;2023-03-31T04:58:18;11.50;99.90
16408;DHT22;8313;49.894;8.084;2023-03-31T05:00:43;11.40;99.90
16408;DHT22;8313;49.894;8.084;2023-03-31T05:03:09;11.30;99.90
16408;DHT22;8313;49.894;8.084;2023-03-31T05:05:35;11.40;99.90
16408;DHT22;8313;49.894;8.084;2023-03-31T05:08:02;11.50;99.90
16408;DHT22;8313;49.894;8.084;2023-03-31T05:10:28;11.50;99.90
16408;DHT22;8313;49.894;8.084;2023-03-31T05:12:54;11.50;99.90
16408;DHT22;8313;49.894;8.084;2023-03-31T05:15:20;11.50;99.90
16408;DHT22;8313;49.894;8.084;2023-03-31T05:17:45;11.50;99.90
16408;DHT22;8313;49.894;8.084;2023-03-31T05:20:12;11.50;99.90
16408;DHT22;8313;49.894;8.084;2023-03-31T05:22:38;11.50;99.90
16408;DHT22;8313;49.894;8.084;2023-03-31T05:25:05;11.50;99.90
16408;DHT22;8313;49.894;8.084;2023-03-31T05:27:32;11.50;99.90
16408;DHT22;8313;49.894;8.084;2023-03-31T05:29:58;11.60;99.90
16408;DHT22;8313;49.894;8.084;2023-03-31T05:32:25;11.60;99.90
16408;DHT22;8313;49.894;8.084;2023-03-31T05:34:50;11.60;99.90
16408;DHT22;8313;49.894;8.084;2023-03-31T05:37:20;11.60;99.90
16408;DHT22;8313;49.894;8.084;2023-03-31T05:39:45;11.60;99.90
16408;DHT22;8313;49.894;8.084;2023-03-31T05:42:11;11.60;99.90
16408;DHT22;8313;49.894;8.084;2023-03-31T05:44:37;11.60;99.90
16408;DHT22;8313;49.894;8.084;2023-03-31T05:47:03;11.60;99.90
16408;DHT22;8313;49.894;8.084;2023-03-31T05:49:28;11.60;99.90
16408;DHT22;8313;49.894;8.084;2023-03-31T05:51:54;11.60;99.90
16408;DHT22;8313;49.894;8.084;2023-03-31T05:54:20;11.60;99.90
16408;DHT22;8313;49.894;8.084;2023-03-31T05:56:47;11.60;99.90
16408;DHT22;8313;49.894;8.084;2023-03-31T05:59:13;11.60;99.90
16408;DHT22;8313;49.894;8.084;2023-03-31T06:01:39;11.60;99.90
16408;DHT22;8313;49.894;8.084;2023-03-31T06:04:05;11.60;99.90
16408;DHT22;8313;49.894;8.084;2023-03-31T06:06:31;11.60;99.90
16408;DHT22;8313;49.894;8.084;2023-03-31T06:08:59;11.60;99.90
16408;DHT22;8313;49.894;8.084;2023-03-31T06:11:25;11.60;99.90
16408;DHT22;8313;49.894;8.084;2023-03-31T06:13:51;11.50;99.90
16408;DHT22;8313;49.894;8.084;2023-03-31T06:16:17;11.50;99.90
16408;DHT22;8313;49.894;8.084;2023-03-31T06:18:43;11.50;99.90
16408;DHT22;8313;49.894;8.084;2023-03-31T06:21:12;11.50;99.90
16408;DHT22;8313;49.894;8.084;2023-03-31T06:23:37;11.50;99.90
16408;DHT22;8313;49.894;8.084;2023-03-31T06:26:05;11.50;99.90
16408;DHT22;8313;49.894;8.084;2023-03-31T06:28:34;11.40;99.90
16408;DHT22;8313;49.894;8.084;2023-03-31T06:31:05;11.40;99.90
16408;DHT22;8313;49.894;8.084;2023-03-31T06:33:32;11.30;99.90
16408;DHT22;8313;49.894;8.084;2023-03-31T06:35:58;11.30;99.90
16408;DHT22;8313;49.894;8.084;2023-03-31T06:38:26;11.30;99.90
16408;DHT22;8313;49.894;8.084;2023-03-31T06:40:52;11.30;99.90
16408;DHT22;8313;49.894;8.084;2023-03-31T06:43:18;11.30;99.90
16408;DHT22;8313;49.894;8.084;2023-03-31T06:45:45;11.30;99.90
16408;DHT22;8313;49.894;8.084;2023-03-31T06:48:11;11.30;99.90
16408;DHT22;8313;49.894;8.084;2023-03-31T06:50:38;11.20;99.90
16408;DHT22;8313;49.894;8.084;2023-03-31T06:53:04;11.20;99.90
16408;DHT22;8313;49.894;8.084;2023-03-31T06:55:30;11.20;99.90
16408;DHT22;8313;49.894;8.084;2023-03-31T06:57:56;11.20;99.90
16408;DHT22;8313;49.894;8.084;2023-03-31T07:00:22;11.30;99.90
16408;DHT22;8313;49.894;8.084;2023-03-31T07:02:50;11.20;99.90
16408;DHT22;8313;49.894;8.084;2023-03-31T07:05:16;11.20;99.90
16408;DHT22;8313;49.894;8.084;2023-03-31T07:07:42;11.20;99.90
16408;DHT22;8313;49.894;8.084;2023-03-31T07:10:08;11.20;99.90
16408;DHT22;8313;49.894;8.084;2023-03-31T07:12:34;11.20;99.90
16408;DHT22;8313;49.894;8.084;2023-03-31T07:14:59;11.30;99.90
16408;DHT22;8313;49.894;8.084;2023-03-31T07:17:25;11.30;99.90
16408;DHT22;8313;49.894;8.084;2023-03-31T07:19:51;11.30;99.90
16408;DHT22;8313;49.894;8.084;2023-03-31T07:22:16;11.30;99.90
16408;DHT22;8313;49.894;8.084;2023-03-31T07:24:42;11.30;99.90
16408;DHT22;8313;49.894;8.084;2023-03-31T07:27:08;11.30;99.90
16408;DHT22;8313;49.894;8.084;2023-03-31T07:29:33;11.40;99.90
16408;DHT22;8313;49.894;8.084;2023-03-31T07:31:59;11.40;99.90
16408;DHT22;8313;49.894;8.084;2023-03-31T07:34:25;11.40;99.90
16408;DHT22;8313;49.894;8.084;2023-03-31T07:36:54;11.40;99.90
16408;DHT22;8313;49.894;8.084;2023-03-31T07:39:20;11.40;99.90
16408;DHT22;8313;49.894;8.084;2023-03-31T07:41:46;11.50;99.90
16408;DHT22;8313;49.894;8.084;2023-03-31T07:44:12;11.50;99.90
16408;DHT22;8313;49.894;8.084;2023-03-31T07:46:38;11.50;99.90
16408;DHT22;8313;49.894;8.084;2023-03-31T07:49:04;11.40;99.90
16408;DHT22;8313;49.894;8.084;2023-03-31T07:51:31;11.40;99.90
16408;DHT22;8313;49.894;8.084;2023-03-31T07:53:57;11.50;99.90
16408;DHT22;8313;49.894;8.084;2023-03-31T07:56:24;11.60;99.90
16408;DHT22;8313;49.894;8.084;2023-03-31T07:58:49;11.60;99.90
16408;DHT22;8313;49.894;8.084;2023-03-31T08:01:19;11.60;99.90
16408;DHT22;8313;49.894;8.084;2023-03-31T08:03:46;11.60;99.90
16408;DHT22;8313;49.894;8.084;2023-03-31T08:06:21;11.60;99.90
16408;DHT22;8313;49.894;8.084;2023-03-31T08:08:50;11.60;99.90
16408;DHT22;8313;49.894;8.084;2023-03-31T08:11:16;11.70;99.90
16408;DHT22;8313;49.894;8.084;2023-03-31T08:13:42;11.70;99.90
16408;DHT22;8313;49.894;8.084;2023-03-31T08:16:08;11.70;99.90
16408;DHT22;8313;49.894;8.084;2023-03-31T08:18:34;11.70;99.90
16408;DHT22;8313;49.894;8.084;2023-03-31T08:20:59;11.80;99.90
16408;DHT22;8313;49.894;8.084;2023-03-31T08:23:25;11.70;99.90
16408;DHT22;8313;49.894;8.084;2023-03-31T08:25:51;11.70;99.90
16408;DHT22;8313;49.894;8.084;2023-03-31T08:28:16;11.70;99.90
16408;DHT22;8313;49.894;8.084;2023-03-31T08:30:43;11.60;99.90
16408;DHT22;8313;49.894;8.084;2023-03-31T08:33:08;11.70;99.90
16408;DHT22;8313;49.894;8.084;2023-03-31T08:35:37;11.80;99.90
16408;DHT22;8313;49.894;8.084;2023-03-31T08:38:03;11.80;99.90
16408;DHT22;8313;49.894;8.084;2023-03-31T08:40:30;11.90;99.90
16408;DHT22;8313;49.894;8.084;2023-03-31T08:43:16;12.00;99.90
16408;DHT22;8313;49.894;8.084;2023-03-31T08:45:45;12.20;99.90
16408;DHT22;8313;49.894;8.084;2023-03-31T08:48:28;12.30;99.90
16408;DHT22;8313;49.894;8.084;2023-03-31T08:50:59;12.40;99.90
16408;DHT22;8313;49.894;8.084;2023-03-31T08:53:28;12.50;99.90
16408;DHT22;8313;49.894;8.084;2023-03-31T08:55:57;12.50;99.90
16408;DHT22;8313;49.894;8.084;2023-03-31T08:58:42;12.50;99.90
16408;DHT22;8313;49.894;8.084;2023-03-31T09:06:26;12.50;99.90
16408;DHT22;8313;49.894;8.084;2023-03-31T09:09:00;12.50;99.90
16408;DHT22;8313;49.894;8.084;2023-03-31T09:11:35;12.40;99.90
16408;DHT22;8313;49.894;8.084;2023-03-31T09:19:51;12.50;99.90
16408;DHT22;8313;49.894;8.084;2023-03-31T09:22:44;12.50;99.90
16408;DHT22;8313;49.894;8.084;2023-03-31T09:27:42;12.50;99.90
16408;DHT22;8313;49.894;8.084;2023-03-31T09:32:36;12.40;99.90
16408;DHT22;8313;49.894;8.084;2023-03-31T09:35:35;12.40;99.90
16408;DHT22;8313;49.894;8.084;2023-03-31T09:38:01;12.30;99.90
16408;DHT22;8313;49.894;8.084;2023-03-31T09:40:27;12.20;99.90
16408;DHT22;8313;49.894;8.084;2023-03-31T09:43:02;12.20;99.90
16408;DHT22;8313;49.894;8.084;2023-03-31T09:45:29;12.20;99.90
16408;DHT22;8313;49.894;8.084;2023-03-31T09:47:59;12.20;99.90
16408;DHT22;8313;49.894;8.084;2023-03-31T09:50:26;12.10;99.90
16408;DHT22;8313;49.894;8.084;2023-03-31T09:52:55;12.20;99.90
16408;DHT22;8313;49.894;8.084;2023-03-31T09:55:43;12.20;99.90
16408;DHT22;8313;49.894;8.084;2023-03-31T09:58:13;12.20;99.90
16408;DHT22;8313;49.894;8.084;2023-03-31T10:00:54;12.30;99.90
16408;DHT22;8313;49.894;8.084;2023-03-31T10:03:21;12.20;99.90
16408;DHT22;8313;49.894;8.084;2023-03-31T10:05:54;12.00;99.90
16408;DHT22;8313;49.894;8.084;2023-03-31T10:08:38;11.80;99.90
16408;DHT22;8313;49.894;8.084;2023-03-31T10:13:44;11.70;99.90
16408;DHT22;8313;49.894;8.084;2023-03-31T10:16:21;11.50;99.90
16408;DHT22;8313;49.894;8.084;2023-03-31T10:18:47;11.40;99.90
16408;DHT22;8313;49.894;8.084;2023-03-31T10:21:23;11.30;99.90
16408;DHT22;8313;49.894;8.084;2023-03-31T10:23:50;11.30;99.90
16408;DHT22;8313;49.894;8.084;2023-03-31T10:26:19;11.30;99.90
16408;DHT22;8313;49.894;8.084;2023-03-31T10:28:47;11.20;99.90
16408;DHT22;8313;49.894;8.084;2023-03-31T10:31:15;11.20;99.90
16408;DHT22;8313;49.894;8.084;2023-03-31T10:33:45;11.20;99.90
16408;DHT22;8313;49.894;8.084;2023-03-31T10:36:26;11.30;99.90
16408;DHT22;8313;49.894;8.084;2023-03-31T10:38:53;11.30;99.90
16408;DHT22;8313;49.894;8.084;2023-03-31T10:41:27;11.50;99.90
16408;DHT22;8313;49.894;8.084;2023-03-31T10:44:03;11.60;99.90
16408;DHT22;8313;49.894;8.084;2023-03-31T10:46:49;11.70;99.90
16408;DHT22;8313;49.894;8.084;2023-03-31T10:49:26;11.90;99.90
16408;DHT22;8313;49.894;8.084;2023-03-31T10:54:19;12.40;99.90
16408;DHT22;8313;49.894;8.084;2023-03-31T10:56:51;12.60;99.90
16408;DHT22;8313;49.894;8.084;2023-03-31T11:05:11;13.20;99.90
16408;DHT22;8313;49.894;8.084;2023-03-31T11:13:09;13.80;99.90
16408;DHT22;8313;49.894;8.084;2023-03-31T11:42:04;13.60;99.90
16408;DHT22;8313;49.894;8.084;2023-03-31T11:44:47;13.60;99.90
16408;DHT22;8313;49.894;8.084;2023-03-31T11:47:30;13.60;99.90
16408;DHT22;8313;49.894;8.084;2023-03-31T11:50:08;13.60;99.90
16408;DHT22;8313;49.894;8.084;2023-03-31T11:52:39;13.60;99.90
16408;DHT22;8313;49.894;8.084;2023-03-31T11:55:20;13.60;99.90
16408;DHT22;8313;49.894;8.084;2023-03-31T12:00:23;13.70;99.90
16408;DHT22;8313;49.894;8.084;2023-03-31T12:05:48;13.70;99.90
16408;DHT22;8313;49.894;8.084;2023-03-31T12:08:15;13.80;99.90
16408;DHT22;8313;49.894;8.084;2023-03-31T12:11:09;13.90;99.90
16408;DHT22;8313;49.894;8.084;2023-03-31T12:13:54;13.90;99.90
16408;DHT22;8313;49.894;8.084;2023-03-31T12:16:45;13.90;99.90
16408;DHT22;8313;49.894;8.084;2023-03-31T12:24:46;13.80;99.90
16408;DHT22;8313;49.894;8.084;2023-03-31T12:30:00;14.20;99.90
16408;DHT22;8313;49.894;8.084;2023-03-31T12:32:37;14.40;99.90
16408;DHT22;8313;49.894;8.084;2023-03-31T12:38:14;14.70;99.90
16408;DHT22;8313;49.894;8.084;2023-03-31T12:41:13;14.60;99.90
16408;DHT22;8313;49.894;8.084;2023-03-31T12:52:07;14.60;99.90
16408;DHT22;8313;49.894;8.084;2023-03-31T12:54:58;14.70;99.90
16408;DHT22;8313;49.894;8.084;2023-03-31T12:57:27;14.50;99.90
16408;DHT22;8313;49.894;8.084;2023-03-31T13:02:41;13.80;99.90
16408;DHT22;8313;49.894;8.084;2023-03-31T13:08:01;12.90;99.90
16408;DHT22;8313;49.894;8.084;2023-03-31T13:10:28;12.60;99.90
16408;DHT22;8313;49.894;8.084;2023-03-31T13:13:11;12.40;99.90
16408;DHT22;8313;49.894;8.084;2023-03-31T13:15:38;12.30;99.90
16408;DHT22;8313;49.894;8.084;2023-03-31T13:18:05;12.10;99.90
16408;DHT22;8313;49.894;8.084;2023-03-31T13:20:36;12.10;99.90
16408;DHT22;8313;49.894;8.084;2023-03-31T13:23:16;12.00;99.90
16408;DHT22;8313;49.894;8.084;2023-03-31T13:25:46;12.00;99.90
16408;DHT22;8313;49.894;8.084;2023-03-31T13:33:56;12.20;99.90
16408;DHT22;8313;49.894;8.084;2023-03-31T13:53:03;13.60;99.90
16408;DHT22;8313;49.894;8.084;2023-03-31T14:06:51;14.20;99.90
16408;DHT22;8313;49.894;8.084;2023-03-31T14:11:53;14.40;99.90
16408;DHT22;8313;49.894;8.084;2023-03-31T14:14:21;14.50;99.90
16408;DHT22;8313;49.894;8.084;2023-03-31T14:16:54;14.70;99.90
16408;DHT22;8313;49.894;8.084;2023-03-31T14:36:08;14.70;99.90
16408;DHT22;8313;49.894;8.084;2023-03-31T14:38:37;14.60;99.90
16408;DHT22;8313;49.894;8.084;2023-03-31T14:41:03;14.50;99.90
16408;DHT22;8313;49.894;8.084;2023-03-31T14:43:34;14.40;99.90
16408;DHT22;8313;49.894;8.084;2023-03-31T14:48:31;13.90;99.90
16408;DHT22;8313;49.894;8.084;2023-03-31T14:51:00;13.80;99.90
16408;DHT22;8313;49.894;8.084;2023-03-31T14:53:26;13.50;99.90
16408;DHT22;8313;49.894;8.084;2023-03-31T14:56:00;13.30;99.90
16408;DHT22;8313;49.894;8.084;2023-03-31T14:58:33;13.20;99.90
16408;DHT22;8313;49.894;8.084;2023-03-31T15:01:01;13.10;99.90
16408;DHT22;8313;49.894;8.084;2023-03-31T15:03:28;13.10;99.90
16408;DHT22;8313;49.894;8.084;2023-03-31T15:05:59;13.10;99.90
16408;DHT22;8313;49.894;8.084;2023-03-31T15:08:26;13.10;99.90
16408;DHT22;8313;49.894;8.084;2023-03-31T15:11:04;13.20;99.90
16408;DHT22;8313;49.894;8.084;2023-03-31T15:13:56;13.40;99.90
16408;DHT22;8313;49.894;8.084;2023-03-31T15:16:42;13.60;99.90
16408;DHT22;8313;49.894;8.084;2023-03-31T15:19:21;13.70;99.90
16408;DHT22;8313;49.894;8.084;2023-03-31T15:21:54;13.70;99.90
16408;DHT22;8313;49.894;8.084;2023-03-31T15:24:21;13.60;99.90
16408;DHT22;8313;49.894;8.084;2023-03-31T15:32:33;13.40;99.90
16408;DHT22;8313;49.894;8.084;2023-03-31T15:35:00;13.30;99.90
16408;DHT22;8313;49.894;8.084;2023-03-31T15:37:39;13.20;99.90
16408;DHT22;8313;49.894;8.084;2023-03-31T15:40:18;13.20;99.90
16408;DHT22;8313;49.894;8.084;2023-03-31T15:42:46;13.20;99.90
16408;DHT22;8313;49.894;8.084;2023-03-31T15:45:44;13.40;99.90
16408;DHT22;8313;49.894;8.084;2023-03-31T15:48:28;13.30;99.90
16408;DHT22;8313;49.894;8.084;2023-03-31T15:51:06;13.20;99.90
16408;DHT22;8313;49.894;8.084;2023-03-31T15:56:00;13.10;99.90
16408;DHT22;8313;49.894;8.084;2023-03-31T16:01:21;12.90;99.90
16408;DHT22;8313;49.894;8.084;2023-03-31T16:03:47;12.80;99.90
16408;DHT22;8313;49.894;8.084;2023-03-31T16:06:35;12.70;99.90
16408;DHT22;8313;49.894;8.084;2023-03-31T16:12:20;12.70;99.90
16408;DHT22;8313;49.894;8.084;2023-03-31T16:15:01;12.60;99.90
16408;DHT22;8313;49.894;8.084;2023-03-31T16:17:49;12.70;99.90
16408;DHT22;8313;49.894;8.084;2023-03-31T16:22:52;12.80;99.90
16408;DHT22;8313;49.894;8.084;2023-03-31T16:25:22;12.70;99.90
16408;DHT22;8313;49.894;8.084;2023-03-31T16:27:54;12.70;99.90
16408;DHT22;8313;49.894;8.084;2023-03-31T16:30:38;12.60;99.90
16408;DHT22;8313;49.894;8.084;2023-03-31T16:33:05;12.60;99.90
16408;DHT22;8313;49.894;8.084;2023-03-31T16:35:36;12.50;99.90
16408;DHT22;8313;49.894;8.084;2023-03-31T16:38:03;12.50;99.90
16408;DHT22;8313;49.894;8.084;2023-03-31T16:40:30;12.50;99.90
16408;DHT22;8313;49.894;8.084;2023-03-31T16:45:42;12.50;99.90
16408;DHT22;8313;49.894;8.084;2023-03-31T16:48:07;12.40;99.90
16408;DHT22;8313;49.894;8.084;2023-03-31T16:50:33;12.40;99.90
16408;DHT22;8313;49.894;8.084;2023-03-31T16:53:00;12.40;99.90
16408;DHT22;8313;49.894;8.084;2023-03-31T16:55:26;12.40;99.90
16408;DHT22;8313;49.894;8.084;2023-03-31T16:57:52;12.40;99.90
16408;DHT22;8313;49.894;8.084;2023-03-31T17:00:19;12.30;99.90
16408;DHT22;8313;49.894;8.084;2023-03-31T17:02:44;12.30;99.90
16408;DHT22;8313;49.894;8.084;2023-03-31T17:05:10;12.40;99.90
16408;DHT22;8313;49.894;8.084;2023-03-31T17:07:36;12.40;99.90
16408;DHT22;8313;49.894;8.084;2023-03-31T17:10:02;12.50;99.90
16408;DHT22;8313;49.894;8.084;2023-03-31T17:12:27;12.50;99.90
16408;DHT22;8313;49.894;8.084;2023-03-31T17:14:53;12.40;99.90
16408;DHT22;8313;49.894;8.084;2023-03-31T17:17:19;12.40;99.90
16408;DHT22;8313;49.894;8.084;2023-03-31T17:19:45;12.40;99.90
16408;DHT22;8313;49.894;8.084;2023-03-31T17:22:10;12.30;99.90
16408;DHT22;8313;49.894;8.084;2023-03-31T17:24:36;12.20;99.90
16408;DHT22;8313;49.894;8.084;2023-03-31T17:27:02;12.10;99.90
16408;DHT22;8313;49.894;8.084;2023-03-31T17:29:27;12.10;99.90
16408;DHT22;8313;49.894;8.084;2023-03-31T17:31:53;12.20;99.90
16408;DHT22;8313;49.894;8.084;2023-03-31T17:34:19;12.10;99.90
16408;DHT22;8313;49.894;8.084;2023-03-31T17:36:45;12.00;99.90
16408;DHT22;8313;49.894;8.084;2023-03-31T17:39:11;11.90;99.90
16408;DHT22;8313;49.894;8.084;2023-03-31T17:41:37;11.90;99.90
16408;DHT22;8313;49.894;8.084;2023-03-31T17:44:03;11.80;99.90
16408;DHT22;8313;49.894;8.084;2023-03-31T17:46:29;11.80;99.90
16408;DHT22;8313;49.894;8.084;2023-03-31T17:48:55;11.90;99.90
16408;DHT22;8313;49.894;8.084;2023-03-31T17:51:22;11.70;99.90
16408;DHT22;8313;49.894;8.084;2023-03-31T17:53:48;11.70;99.90
16408;DHT22;8313;49.894;8.084;2023-03-31T17:56:15;11.60;99.90
16408;DHT22;8313;49.894;8.084;2023-03-31T17:58:41;11.50;99.90
16408;DHT22;8313;49.894;8.084;2023-03-31T18:01:08;11.40;99.90
16408;DHT22;8313;49.894;8.084;2023-03-31T18:03:34;11.40;99.90
16408;DHT22;8313;49.894;8.084;2023-03-31T18:06:04;11.30;99.90
16408;DHT22;8313;49.894;8.084;2023-03-31T18:08:31;11.30;99.90
16408;DHT22;8313;49.894;8.084;2023-03-31T18:10:57;11.50;99.90
16408;DHT22;8313;49.894;8.084;2023-03-31T18:13:23;11.50;99.90
16408;DHT22;8313;49.894;8.084;2023-03-31T18:15:50;11.50;99.90
16408;DHT22;8313;49.894;8.084;2023-03-31T18:18:18;11.50;99.90
16408;DHT22;8313;49.894;8.084;2023-03-31T18:20:45;11.40;99.90
16408;DHT22;8313;49.894;8.084;2023-03-31T18:23:11;11.30;99.90
16408;DHT22;8313;49.894;8.084;2023-03-31T18:25:36;11.20;99.90
16408;DHT22;8313;49.894;8.084;2023-03-31T18:28:02;11.10;99.90
16408;DHT22;8313;49.894;8.084;2023-03-31T18:30:28;11.10;99.90
16408;DHT22;8313;49.894;8.084;2023-03-31T18:32:54;11.10;99.90
16408;DHT22;8313;49.894;8.084;2023-03-31T18:35:20;11.10;99.90
16408;DHT22;8313;49.894;8.084;2023-03-31T18:37:47;11.00;99.90
16408;DHT22;8313;49.894;8.084;2023-03-31T18:40:13;11.10;99.90
16408;DHT22;8313;49.894;8.084;2023-03-31T18:42:40;11.00;99.90
16408;DHT22;8313;49.894;8.084;2023-03-31T18:45:06;11.10;99.90
16408;DHT22;8313;49.894;8.084;2023-03-31T18:47:33;11.30;99.90
16408;DHT22;8313;49.894;8.084;2023-03-31T18:49:59;11.50;99.90
16408;DHT22;8313;49.894;8.084;2023-03-31T18:52:25;11.50;99.90
16408;DHT22;8313;49.894;8.084;2023-03-31T18:54:51;11.50;99.90
16408;DHT22;8313;49.894;8.084;2023-03-31T18:57:17;11.50;99.90
16408;DHT22;8313;49.894;8.084;2023-03-31T18:59:43;11.50;99.90
16408;DHT22;8313;49.894;8.084;2023-03-31T19:02:12;11.50;99.90
16408;DHT22;8313;49.894;8.084;2023-03-31T19:04:38;11.40;99.90
16408;DHT22;8313;49.894;8.084;2023-03-31T19:07:04;11.30;99.90
16408;DHT22;8313;49.894;8.084;2023-03-31T19:09:29;11.40;99.90
16408;DHT22;8313;49.894;8.084;2023-03-31T19:11:55;11.20;99.90
16408;DHT22;8313;49.894;8.084;2023-03-31T19:14:21;11.20;99.90
16408;DHT22;8313;49.894;8.084;2023-03-31T19:16:47;11.30;99.90
16408;DHT22;8313;49.894;8.084;2023-03-31T19:19:13;11.20;99.90
16408;DHT22;8313;49.894;8.084;2023-03-31T19:21:38;11.20;99.90
16408;DHT22;8313;49.894;8.084;2023-03-31T19:24:05;11.00;99.90
16408;DHT22;8313;49.894;8.084;2023-03-31T19:26:31;10.80;99.90
16408;DHT22;8313;49.894;8.084;2023-03-31T19:28:57;10.70;99.90
16408;DHT22;8313;49.894;8.084;2023-03-31T19:31:23;10.70;99.90
16408;DHT22;8313;49.894;8.084;2023-03-31T19:33:48;10.70;99.90
16408;DHT22;8313;49.894;8.084;2023-03-31T19:36:17;10.60;99.90
16408;DHT22;8313;49.894;8.084;2023-03-31T19:38:43;10.70;99.90
16408;DHT22;8313;49.894;8.084;2023-03-31T19:41:08;10.70;99.90